Time;durP1;ratioP1;P1;durP2;ratioP2;P2;SDS_P1;SDS_P2;PMS_P1;PMS_P2;Temp;Humidity;BMP_temperature;BMP_pressure;BME280_temperature;BME280_humidity;BME280_pressure;Samples;Min_cycle;Max_cycle;Signal;HPM_P1;HPM_P2
2022/05/02 00:01:40;;;;;;;;;;;;;;;10.72;67.15;100337.06;5013836;28;19943;-65
2022/05/02 00:04:27;;;;;;;;;;;;;;;10.72;67.24;100336.19;5013750;28;19971;-65
2022/05/02 00:07:14;;;;;;;;;;;;;;;10.71;67.37;100332.72;5014100;28;19928;-65
2022/05/02 00:10:07;;;;;;;;;;;;;;;10.70;67.25;100324.91;5014073;28;19944;-65
2022/05/02 00:12:51;;;;;;;;;;;;;;;10.70;67.02;100330.97;5013616;28;19975;-64
2022/05/02 00:15:36;;;;;;;;;;;;;;;10.70;66.98;100324.91;5014349;28;19967;-64
2022/05/02 00:18:23;;;;;;;;;;;;;;;10.69;67.40;100323.16;5013179;28;19944;-64
2022/05/02 00:21:09;;;;;;;;;;;;;;;10.68;67.44;100319.69;5013323;28;19928;-65
2022/05/02 00:23:57;;;;;;;;;;;;;;;10.68;67.08;100316.22;5013741;28;19943;-66
2022/05/02 00:26:49;;;;;;;;;;;;;;;10.68;67.20;100322.28;5026752;28;20396;-65
2022/05/02 00:29:41;;;;;;;;;;;;;;;10.66;67.04;100323.97;5014244;28;19936;-65
2022/05/02 00:32:34;;;;;;;;;;;;;;;10.67;67.04;100320.53;5012895;28;20388;-65
2022/05/02 00:35:24;;;;;;;;;;;;;;;10.67;66.99;100323.13;5012702;28;19944;-64
2022/05/02 00:38:14;;;;;;;;;;;;;;;10.68;67.02;100318.81;5013193;28;20336;-64
2022/05/02 00:41:03;;;;;;;;;;;;;;;10.68;67.04;100314.50;5015340;28;20450;-65
2022/05/02 00:44:01;;;;;;;;;;;;;;;10.69;66.99;100318.88;5017040;28;19935;-64
2022/05/02 00:46:48;;;;;;;;;;;;;;;10.69;67.42;100308.50;5016708;28;20007;-64
2022/05/02 00:49:38;;;;;;;;;;;;;;;10.70;67.13;100306.75;5016585;28;19929;-65
2022/05/02 00:52:28;;;;;;;;;;;;;;;10.71;67.26;100304.22;5016080;28;20415;-64
2022/05/02 00:55:18;;;;;;;;;;;;;;;10.72;67.05;100307.66;5031338;28;19929;-65
2022/05/02 00:58:05;;;;;;;;;;;;;;;10.72;67.10;100302.47;5015953;28;19945;-64
2022/05/02 01:00:52;;;;;;;;;;;;;;;10.73;67.04;100301.63;5016243;28;19968;-64
2022/05/02 01:03:39;;;;;;;;;;;;;;;10.72;67.34;100305.06;5017079;28;19943;-65
2022/05/02 01:09:32;;;;;;;;;;;;;;;10.72;67.00;100299.88;5016535;28;19929;-65
2022/05/02 01:12:25;;;;;;;;;;;;;;;10.70;67.11;100302.47;5015847;28;19975;-64
2022/05/02 01:15:13;;;;;;;;;;;;;;;10.71;67.24;100305.91;5016438;28;19928;-64
2022/05/02 01:18:06;;;;;;;;;;;;;;;10.70;67.17;100299.88;5015725;28;19927;-64
2022/05/02 01:20:58;;;;;;;;;;;;;;;10.70;67.25;100297.28;5016553;28;19976;-65
2022/05/02 01:23:48;;;;;;;;;;;;;;;10.69;67.10;100300.72;5016149;28;20023;-65
2022/05/02 01:26:32;;;;;;;;;;;;;;;10.71;67.01;100287.78;5016513;28;20423;-64
2022/05/02 01:29:16;;;;;;;;;;;;;;;10.71;67.06;100292.97;5029506;28;19928;-64
2022/05/02 01:32:09;;;;;;;;;;;;;;;10.71;67.12;100291.25;5029582;28;19928;-64
2022/05/02 01:34:52;;;;;;;;;;;;;;;10.71;67.09;100280.00;5015425;28;19932;-65
2022/05/02 01:37:39;;;;;;;;;;;;;;;10.70;67.19;100286.03;5016254;28;20399;-64
2022/05/02 01:40:29;;;;;;;;;;;;;;;10.70;67.27;100275.66;5016514;28;19975;-65
2022/05/02 01:43:19;;;;;;;;;;;;;;;10.70;67.50;100283.44;5029727;28;19944;-64
2022/05/02 01:46:13;;;;;;;;;;;;;;;10.70;67.30;100280.84;5015366;28;19929;-65
2022/05/02 01:49:00;;;;;;;;;;;;;;;10.69;67.07;100274.78;5014940;28;19944;-65
2022/05/02 01:51:47;;;;;;;;;;;;;;;10.70;67.13;100270.47;5030028;28;20355;-65
2022/05/02 01:54:34;;;;;;;;;;;;;;;10.69;67.14;100276.50;5029478;28;19929;-64
2022/05/02 01:57:18;;;;;;;;;;;;;;;10.70;67.01;100278.25;5015833;28;19975;-65
2022/05/02 02:00:03;;;;;;;;;;;;;;;10.69;67.40;100276.50;5016219;28;19944;-64
2022/05/02 02:02:50;;;;;;;;;;;;;;;10.70;67.02;100271.34;5014724;28;20009;-64
2022/05/02 02:05:49;;;;;;;;;;;;;;;10.69;67.21;100274.78;5015920;28;19932;-65
2022/05/02 02:08:41;;;;;;;;;;;;;;;10.69;67.05;100269.59;5015075;28;19987;-64
2022/05/02 02:11:37;;;;;;;;;;;;;;;10.68;67.23;100272.16;5014988;28;19967;-65
2022/05/02 02:14:21;;;;;;;;;;;;;;;10.65;66.96;100267.78;5029212;28;19929;-64
2022/05/02 02:17:10;;;;;;;;;;;;;;;10.64;67.04;100272.13;5028846;28;20008;-65
2022/05/02 02:19:54;;;;;;;;;;;;;;;10.63;67.41;100267.78;5014793;28;19932;-64
2022/05/02 02:22:47;;;;;;;;;;;;;;;10.62;66.96;100262.53;5015475;28;19928;-65
2022/05/02 02:25:40;;;;;;;;;;;;;;;10.62;67.26;100265.13;5028848;28;19944;-64
2022/05/02 02:28:26;;;;;;;;;;;;;;;10.61;67.11;100266.88;5028810;28;19932;-64
2022/05/02 02:31:16;;;;;;;;;;;;;;;10.62;67.05;100266.03;5014834;28;19963;-64
2022/05/02 02:34:00;;;;;;;;;;;;;;;10.61;67.44;100269.47;5028752;28;19928;-64
2022/05/02 02:36:50;;;;;;;;;;;;;;;10.62;67.04;100265.13;5028676;28;19960;-64
2022/05/02 02:39:39;;;;;;;;;;;;;;;10.61;67.07;100264.28;5028849;28;19928;-64
2022/05/02 02:42:32;;;;;;;;;;;;;;;10.62;67.44;100257.38;5014353;28;19971;-64
2022/05/02 02:45:16;;;;;;;;;;;;;;;10.63;67.46;100256.53;5014595;28;19928;-64
2022/05/02 02:48:06;;;;;;;;;;;;;;;10.61;67.27;100255.63;5015316;28;19928;-64
2022/05/02 02:50:53;;;;;;;;;;;;;;;10.60;67.44;100246.97;5014362;28;19971;-64
2022/05/02 02:53:49;;;;;;;;;;;;;;;10.60;67.19;100246.97;5014726;28;19959;-64
2022/05/02 02:56:38;;;;;;;;;;;;;;;10.60;67.03;100236.59;5014229;28;19943;-65
2022/05/02 02:59:34;;;;;;;;;;;;;;;10.61;66.99;100248.72;5013860;28;19983;-65
2022/05/02 03:02:24;;;;;;;;;;;;;;;10.61;67.25;100242.66;5014228;28;19967;-64
2022/05/02 03:08:17;;;;;;;;;;;;;;;10.61;67.20;100234.88;5014421;28;20446;-64
2022/05/02 03:11:04;;;;;;;;;;;;;;;10.61;67.19;100235.78;5013631;28;20363;-65
2022/05/02 03:13:53;;;;;;;;;;;;;;;10.60;66.94;100233.13;5014309;28;19927;-65
2022/05/02 03:16:37;;;;;;;;;;;;;;;10.57;67.41;100230.50;5014059;28;20391;-64
2022/05/02 03:19:24;;;;;;;;;;;;;;;10.57;67.28;100240.88;5013997;28;19944;-65
2022/05/02 03:22:16;;;;;;;;;;;;;;;10.55;67.34;100233.03;5014854;28;19975;-64
2022/05/02 03:25:03;;;;;;;;;;;;;;;10.58;67.21;100227.94;5027201;28;19928;-64
2022/05/02 03:27:50;;;;;;;;;;;;;;;10.57;67.32;100223.59;5014268;28;19975;-64
2022/05/02 03:30:37;;;;;;;;;;;;;;;10.56;66.95;100229.63;5028138;28;19971;-65
2022/05/02 03:33:21;;;;;;;;;;;;;;;10.57;67.03;100225.31;5014030;28;19928;-64
2022/05/02 03:36:16;;;;;;;;;;;;;;;10.59;67.08;100223.63;5014253;28;19932;-64
2022/05/02 03:39:09;;;;;;;;;;;;;;;10.57;67.43;100223.59;5013635;28;20344;-65
2022/05/02 03:41:59;;;;;;;;;;;;;;;10.59;67.06;100227.09;5014817;28;19975;-64
2022/05/02 03:44:51;;;;;;;;;;;;;;;10.59;67.23;100229.69;5013384;28;19928;-65
2022/05/02 03:47:35;;;;;;;;;;;;;;;10.60;67.12;100230.53;5012982;28;20427;-64
2022/05/02 03:50:27;;;;;;;;;;;;;;;10.59;67.07;100232.28;5012874;28;19928;-64
2022/05/02 03:53:15;;;;;;;;;;;;;;;10.59;67.30;100231.41;5014113;28;19927;-64
2022/05/02 03:55:59;;;;;;;;;;;;;;;10.58;67.15;100227.94;5013153;28;20339;-64
2022/05/02 03:58:43;;;;;;;;;;;;;;;10.58;67.19;100233.13;5014533;28;20457;-65
2022/05/02 04:01:28;;;;;;;;;;;;;;;10.56;67.60;100227.03;5013347;28;19928;-64
2022/05/02 04:04:14;;;;;;;;;;;;;;;10.57;67.62;100236.53;5013934;28;19929;-65
2022/05/02 04:07:01;;;;;;;;;;;;;;;10.57;67.32;100235.69;5013919;28;20040;-65
2022/05/02 04:09:51;;;;;;;;;;;;;;;10.58;67.72;100240.88;5013105;28;19931;-64
2022/05/02 04:12:44;;;;;;;;;;;;;;;10.56;67.70;100237.38;5027243;28;20075;-65
2022/05/02 04:15:33;;;;;;;;;;;;;;;10.56;67.51;100233.94;5029164;28;20380;-65
2022/05/02 04:18:23;;;;;;;;;;;;;;;10.55;67.25;100243.41;5016908;28;19974;-64
2022/05/02 04:21:07;;;;;;;;;;;;;;;10.55;67.66;100237.38;5030945;28;19968;-65
2022/05/02 04:23:51;;;;;;;;;;;;;;;10.55;67.53;100234.78;5017857;28;19975;-64
2022/05/02 04:26:41;;;;;;;;;;;;;;;10.53;67.32;100237.31;5031052;28;19932;-64
2022/05/02 04:29:30;;;;;;;;;;;;;;;10.52;67.65;100243.34;5016854;28;19971;-65
2022/05/02 04:32:17;;;;;;;;;;;;;;;10.52;67.73;100243.34;5016597;28;19931;-64
2022/05/02 04:35:10;;;;;;;;;;;;;;;10.52;67.57;100248.53;5017763;28;19928;-65
2022/05/02 04:37:57;;;;;;;;;;;;;;;10.53;67.40;100249.41;5016730;28;20407;-64
2022/05/02 04:40:41;;;;;;;;;;;;;;;10.50;67.48;100240.75;5016503;28;19928;-64
2022/05/02 04:43:27;;;;;;;;;;;;;;;10.49;67.64;100238.13;5030816;28;20434;-65
2022/05/02 04:46:11;;;;;;;;;;;;;;;10.50;67.19;100248.50;5030507;28;19967;-65
2022/05/02 04:48:55;;;;;;;;;;;;;;;10.48;67.29;100239.84;5030412;28;19932;-64
2022/05/02 04:51:39;;;;;;;;;;;;;;;10.47;67.52;100245.84;5017581;28;20020;-64
2022/05/02 04:54:26;;;;;;;;;;;;;;;10.47;67.44;100245.00;5017161;28;19968;-64
2022/05/02 04:57:16;;;;;;;;;;;;;;;10.47;67.57;100245.84;5016664;28;20435;-65
2022/05/02 05:00:06;;;;;;;;;;;;;;;10.47;67.72;100255.38;5016750;28;20293;-65
2022/05/02 05:02:50;;;;;;;;;;;;;;;10.47;67.36;100255.38;5016122;28;19928;-65
2022/05/02 05:05:39;;;;;;;;;;;;;;;10.47;67.70;100247.59;5017491;28;19989;-65
2022/05/02 05:08:23;;;;;;;;;;;;;;;10.48;67.38;100249.34;5016045;28;20032;-64
2022/05/02 05:11:26;;;;;;;;;;;;;;;10.48;67.49;100251.94;5016901;28;20285;-65
2022/05/02 05:17:20;;;;;;;;;;;;;;;10.47;67.61;100247.59;5017010;28;19952;-65
2022/05/02 05:20:11;;;;;;;;;;;;;;;10.47;67.70;100247.59;5030312;28;19971;-64
2022/05/02 05:22:56;;;;;;;;;;;;;;;10.46;67.67;100243.25;5015905;28;20427;-64
2022/05/02 05:25:57;;;;;;;;;;;;;;;10.46;67.57;100241.50;5016610;28;19968;-65
2022/05/02 05:28:44;;;;;;;;;;;;;;;10.45;67.19;100257.91;5015817;28;20008;-64
2022/05/02 05:31:49;;;;;;;;;;;;;;;10.43;67.58;100258.72;5029878;28;19929;-64
2022/05/02 05:34:40;;;;;;;;;;;;;;;10.42;67.19;100255.28;5015264;28;19928;-65
2022/05/02 05:37:33;;;;;;;;;;;;;;;10.42;67.49;100254.38;5016151;28;19952;-65
2022/05/02 05:40:34;;;;;;;;;;;;;;;10.42;67.55;100257.88;5029653;28;20376;-65
2022/05/02 05:43:28;;;;;;;;;;;;;;;10.41;67.53;100260.41;5016802;28;20328;-64
2022/05/02 05:46:26;;;;;;;;;;;;;;;10.40;67.54;100256.97;5016166;28;20348;-65
2022/05/02 05:49:13;;;;;;;;;;;;;;;10.39;67.57;100257.81;5015290;28;19929;-65
2022/05/02 05:52:08;;;;;;;;;;;;;;;10.40;67.21;100259.56;5029579;28;19944;-64
2022/05/02 05:55:02;;;;;;;;;;;;;;;10.40;67.43;100261.25;5028960;28;20020;-65
2022/05/02 05:58:00;;;;;;;;;;;;;;;10.40;67.12;100267.31;5015527;28;20012;-64
2022/05/02 06:00:50;;;;;;;;;;;;;;;10.40;67.24;100262.16;5015135;28;19940;-65
2022/05/02 06:03:37;;;;;;;;;;;;;;;10.39;67.57;100262.97;5015028;28;19929;-64
2022/05/02 06:06:22;;;;;;;;;;;;;;;10.39;67.52;100269.88;5016038;28;19928;-65
2022/05/02 06:09:06;;;;;;;;;;;;;;;10.40;67.19;100269.03;5029114;28;20040;-64
2022/05/02 06:11:55;;;;;;;;;;;;;;;10.37;67.36;100269.81;5015886;28;19928;-65
2022/05/02 06:20:59;;;;;;;;;;;;;;;10.34;67.59;100261.97;5015641;28;20423;-65
2022/05/02 06:23:52;;;;;;;;;;;;;;;10.34;67.63;100269.75;5014942;28;20032;-64
2022/05/02 06:26:47;;;;;;;;;;;;;;;10.35;67.67;100269.75;5014547;28;19928;-65
2022/05/02 06:29:33;;;;;;;;;;;;;;;10.38;67.33;100270.66;5015543;28;20395;-64
2022/05/02 06:32:19;;;;;;;;;;;;;;;10.36;67.50;100274.09;5015649;28;19975;-64
2022/05/02 06:35:06;;;;;;;;;;;;;;;10.36;67.42;100276.69;5015801;28;20064;-64
2022/05/02 06:37:58;;;;;;;;;;;;;;;10.36;67.61;100274.09;5014098;28;19929;-64
2022/05/02 06:41:11;;;;;;;;;;;;;;;10.36;67.46;100276.69;5014214;28;19928;-65
2022/05/02 06:44:10;;;;;;;;;;;;;;;10.35;67.26;100277.53;5015626;28;19987;-64
2022/05/02 06:47:00;;;;;;;;;;;;;;;10.36;67.35;100278.44;5015000;28;19941;-64
2022/05/02 06:49:54;;;;;;;;;;;;;;;10.36;67.17;100278.44;5028687;28;19928;-64
2022/05/02 06:52:58;;;;;;;;;;;;;;;10.36;67.62;100273.25;5014393;28;20029;-65
2022/05/02 06:55:57;;;;;;;;;;;;;;;10.35;67.67;100285.31;4999448;28;20396;-65
2022/05/02 06:58:53;;;;;;;;;;;;;;;10.36;67.42;100283.59;5013836;28;19927;-64
2022/05/02 07:01:50;;;;;;;;;;;;;;;10.38;67.51;100281.03;5014633;28;19934;-64
2022/05/02 07:04:37;;;;;;;;;;;;;;;10.38;67.71;100275.84;5014295;28;19928;-64
2022/05/02 07:07:21;;;;;;;;;;;;;;;10.38;67.61;100271.59;5014379;28;19980;-65
2022/05/02 07:10:06;;;;;;;;;;;;;;;10.39;67.26;100275.94;5015123;28;19967;-65
2022/05/02 07:13:08;;;;;;;;;;;;;;;10.40;67.46;100276.78;5013749;28;20037;-65
2022/05/02 07:16:09;;;;;;;;;;;;;;;10.42;67.47;100285.47;5027931;28;19928;-64
2022/05/02 07:18:58;;;;;;;;;;;;;;;10.41;67.19;100271.66;5013941;28;19928;-65
2022/05/02 07:22:03;;;;;;;;;;;;;;;10.42;67.20;100275.13;5027443;28;19967;-66
2022/05/02 07:25:12;;;;;;;;;;;;;;;10.43;67.54;100262.19;5013976;28;19963;-64
2022/05/02 07:27:59;;;;;;;;;;;;;;;10.42;67.02;100262.16;5014004;28;19928;-66
2022/05/02 07:30:47;;;;;;;;;;;;;;;10.42;67.41;100269.94;5014423;28;20281;-64
2022/05/02 07:33:44;;;;;;;;;;;;;;;10.42;67.33;100273.41;5014584;28;20331;-65
2022/05/02 07:36:28;;;;;;;;;;;;;;;10.45;67.50;100267.41;5013722;28;19980;-64
2022/05/02 07:39:13;;;;;;;;;;;;;;;10.46;67.07;100272.59;5013815;28;19968;-65
2022/05/02 07:42:04;;;;;;;;;;;;;;;10.48;67.21;100270.06;5014298;28;19976;-65
2022/05/02 07:44:56;;;;;;;;;;;;;;;10.50;67.54;100268.38;5012854;28;19967;-65
2022/05/02 07:47:44;;;;;;;;;;;;;;;10.50;67.24;100266.66;5013188;28;19929;-65
2022/05/02 07:50:29;;;;;;;;;;;;;;;10.53;67.25;100268.41;5013301;28;19929;-65
2022/05/02 07:53:16;;;;;;;;;;;;;;;10.53;66.96;100271.00;5027023;28;19929;-65
2022/05/02 07:56:07;;;;;;;;;;;;;;;10.53;67.05;100263.25;5027062;28;19927;-64
2022/05/02 07:59:01;;;;;;;;;;;;;;;10.55;66.87;100263.28;5013204;28;19971;-65
2022/05/02 08:01:51;;;;;;;;;;;;;;;10.54;66.92;100270.16;5026729;28;20407;-65
2022/05/02 08:04:38;;;;;;;;;;;;;;;10.56;66.92;100267.63;5027328;28;19971;-65
2022/05/02 08:07:25;;;;;;;;;;;;;;;10.56;67.05;100260.72;5013270;28;20087;-65
2022/05/02 08:10:35;;;;;;;;;;;;;;;10.59;66.90;100260.78;5027079;28;20056;-65
2022/05/02 08:13:27;;;;;;;;;;;;;;;10.60;67.24;100264.22;5013470;28;19928;-65
2022/05/02 08:16:27;;;;;;;;;;;;;;;10.60;66.75;100261.63;5027508;28;19968;-65
2022/05/02 08:19:37;;;;;;;;;;;;;;;10.60;66.85;100265.13;5013218;28;20032;-65
2022/05/02 08:29:11;;;;;;;;;;;;;;;10.65;67.26;100271.28;5014030;28;19968;-65
2022/05/02 08:32:04;;;;;;;;;;;;;;;10.69;66.65;100264.44;5012834;28;19980;-64
2022/05/02 08:34:57;;;;;;;;;;;;;;;10.70;66.63;100270.47;5026815;28;19975;-65
2022/05/02 08:37:47;;;;;;;;;;;;;;;10.68;67.05;100267.84;5013733;28;19929;-64
2022/05/02 08:40:54;;;;;;;;;;;;;;;10.72;66.64;100266.19;5027040;28;19975;-65
2022/05/02 08:43:52;;;;;;;;;;;;;;;10.73;66.85;100267.94;5012610;28;20443;-65
2022/05/02 08:46:55;;;;;;;;;;;;;;;10.75;66.49;100268.84;5027195;28;19928;-65
2022/05/02 08:50:05;;;;;;;;;;;;;;;10.77;66.80;100264.56;5013676;28;19943;-65
2022/05/02 08:53:19;;;;;;;;;;;;;;;10.77;66.43;100265.44;5026603;28;19971;-65
2022/05/02 08:56:27;;;;;;;;;;;;;;;10.80;66.57;100264.63;4995291;28;19978;-65
2022/05/02 08:59:30;;;;;;;;;;;;;;;10.80;66.72;100262.03;5013874;28;19928;-65
2022/05/02 09:02:26;;;;;;;;;;;;;;;10.82;66.46;100260.34;5015319;28;20288;-65
2022/05/02 09:05:38;;;;;;;;;;;;;;;10.81;66.48;100262.06;5017204;28;20063;-65
2022/05/02 09:08:40;;;;;;;;;;;;;;;10.82;66.66;100256.03;5029557;28;19929;-65
2022/05/02 09:11:43;;;;;;;;;;;;;;;10.86;66.47;100261.28;5017185;28;20067;-65
2022/05/02 09:14:33;;;;;;;;;;;;;;;10.85;66.75;100265.56;5016399;28;19987;-66
2022/05/02 09:17:40;;;;;;;;;;;;;;;10.90;66.74;100256.16;5017132;28;20439;-65
2022/05/02 09:20:40;;;;;;;;;;;;;;;10.91;66.59;100255.31;5015965;28;20031;-65
2022/05/02 09:23:53;;;;;;;;;;;;;;;10.92;66.39;100251.00;5017031;28;19928;-65
2022/05/02 09:26:42;;;;;;;;;;;;;;;10.92;66.52;100251.88;5015982;28;19975;-65
2022/05/02 09:29:30;;;;;;;;;;;;;;;10.95;66.19;100253.66;5029258;28;19928;-65
2022/05/02 09:32:17;;;;;;;;;;;;;;;10.96;66.46;100248.50;5016929;28;19928;-65
2022/05/02 09:35:04;;;;;;;;;;;;;;;10.99;66.64;100244.19;5015607;28;19928;-65
2022/05/02 09:37:57;;;;;;;;;;;;;;;10.99;66.73;100246.78;5029614;28;19927;-65
2022/05/02 09:40:41;;;;;;;;;;;;;;;11.01;66.40;100242.50;5015514;28;20412;-64
2022/05/02 09:50:40;;;;;;;;;;;;;;;11.04;65.99;100243.47;5016235;28;19980;-65
2022/05/02 09:53:34;;;;;;;;;;;;;;;11.05;66.08;100232.25;5015163;28;20403;-65
2022/05/02 09:56:39;;;;;;;;;;;;;;;11.06;66.07;100235.69;5016147;28;20044;-65
2022/05/02 09:59:34;;;;;;;;;;;;;;;11.06;65.90;100235.69;5016414;28;19972;-66
2022/05/02 10:02:31;;;;;;;;;;;;;;;11.08;66.08;100232.25;5014881;28;20345;-66
2022/05/02 10:05:29;;;;;;;;;;;;;;;11.07;66.05;100230.50;5015102;28;19933;-65
2022/05/02 10:08:30;;;;;;;;;;;;;;;11.08;66.32;100234.00;5014946;28;20011;-65
2022/05/02 10:11:34;;;;;;;;;;;;;;;11.09;66.07;100231.41;5014825;28;19947;-66
2022/05/02 10:14:26;;;;;;;;;;;;;;;11.10;66.16;100232.31;5015470;28;19928;-65
2022/05/02 10:17:29;;;;;;;;;;;;;;;11.12;65.97;100231.47;5029299;28;19928;-65
2022/05/02 10:20:22;;;;;;;;;;;;;;;11.13;66.11;100234.97;5015809;28;19929;-66
2022/05/02 10:23:12;;;;;;;;;;;;;;;11.12;66.41;100226.28;5028906;28;20016;-66
2022/05/02 10:26:16;;;;;;;;;;;;;;;11.12;66.11;100228.88;5015823;28;19948;-66
2022/05/02 10:29:19;;;;;;;;;;;;;;;11.13;66.13;100222.00;5028582;28;19967;-65
2022/05/02 10:32:29;;;;;;;;;;;;;;;11.14;66.30;100228.03;5014923;28;19936;-66
2022/05/02 10:35:21;;;;;;;;;;;;;;;11.14;66.18;100228.03;5002328;28;19928;-66
2022/05/02 10:38:16;;;;;;;;;;;;;;;11.14;65.90;100226.28;5014336;28;19933;-65
2022/05/02 10:41:15;;;;;;;;;;;;;;;11.15;66.34;100222.84;5014437;28;20403;-65
2022/05/02 10:44:14;;;;;;;;;;;;;;;11.16;66.03;100222.00;5014155;28;19928;-65
2022/05/02 10:47:10;;;;;;;;;;;;;;;11.17;66.01;100221.16;5015062;28;19929;-65
2022/05/02 10:50:00;;;;;;;;;;;;;;;11.16;66.16;100211.63;5014323;28;19929;-65
2022/05/02 10:53:06;;;;;;;;;;;;;;;11.17;66.30;100213.38;5015246;28;20285;-65
2022/05/02 10:56:13;;;;;;;;;;;;;;;11.17;66.06;100208.19;5028337;28;20026;-65
2022/05/02 10:59:05;;;;;;;;;;;;;;;11.20;66.10;100213.44;5013710;28;20067;-65
2022/05/02 11:02:01;;;;;;;;;;;;;;;11.20;66.01;100197.88;5013837;28;19928;-66
2022/05/02 11:05:05;;;;;;;;;;;;;;;11.20;65.83;100203.06;5015002;28;19952;-66
2022/05/02 11:08:09;;;;;;;;;;;;;;;11.21;66.28;100189.25;5014731;28;19945;-66
2022/05/02 11:11:06;;;;;;;;;;;;;;;11.25;66.05;100193.66;5013978;28;20440;-66
2022/05/02 11:14:09;;;;;;;;;;;;;;;11.24;66.11;100191.00;5013942;28;20301;-65
2022/05/02 11:16:53;;;;;;;;;;;;;;;11.26;66.20;100185.00;5014594;28;19929;-65
2022/05/02 11:22:47;;;;;;;;;;;;;;;11.27;66.12;100185.88;5015060;28;20112;-66
2022/05/02 11:25:56;;;;;;;;;;;;;;;11.28;66.09;100177.25;5014166;28;19976;-65
2022/05/02 11:28:48;;;;;;;;;;;;;;;11.29;66.27;100171.19;5013042;28;19929;-65
2022/05/02 11:32:14;;;;;;;;;;;;;;;11.31;66.11;100166.03;5014263;28;20412;-67
2022/05/02 11:35:05;;;;;;;;;;;;;;;11.31;65.84;100172.09;4960037;28;19981;-65
2022/05/02 11:38:07;;;;;;;;;;;;;;;11.32;66.21;100171.25;5013703;28;20040;-66
2022/05/02 11:41:11;;;;;;;;;;;;;;;11.32;65.72;100171.25;5013061;28;20403;-66
2022/05/02 11:44:06;;;;;;;;;;;;;;;11.33;66.24;100164.31;5010438;28;20079;-65
2022/05/02 11:46:53;;;;;;;;;;;;;;;11.35;65.97;100165.22;5027654;28;20020;-67
2022/05/02 11:49:40;;;;;;;;;;;;;;;11.35;66.10;100162.63;5027017;28;20283;-66
2022/05/02 11:52:30;;;;;;;;;;;;;;;11.36;65.83;100162.69;5014520;28;19928;-65
2022/05/02 11:55:26;;;;;;;;;;;;;;;11.36;66.20;100159.19;5013839;28;19988;-66
2022/05/02 11:58:34;;;;;;;;;;;;;;;11.37;66.21;100159.19;5013608;28;19975;-65
2022/05/02 12:01:24;;;;;;;;;;;;;;;11.37;66.21;100166.97;5027241;28;19928;-65
2022/05/02 12:04:19;;;;;;;;;;;;;;;11.39;65.90;100160.09;5012977;28;20446;-66
2022/05/02 12:07:14;;;;;;;;;;;;;;;11.40;66.13;100163.59;5014506;28;19928;-65
2022/05/02 12:10:09;;;;;;;;;;;;;;;11.43;65.81;100159.31;5012956;28;19971;-65
2022/05/02 12:13:05;;;;;;;;;;;;;;;11.43;65.95;100158.44;5012820;28;19929;-66
2022/05/02 12:16:13;;;;;;;;;;;;;;;11.42;66.04;100154.97;5013241;28;20399;-65
2022/05/02 12:18:57;;;;;;;;;;;;;;;11.44;65.91;100147.22;5027148;28;20019;-65
2022/05/02 12:21:45;;;;;;;;;;;;;;;11.43;65.87;100145.47;5026961;28;20300;-66
2022/05/02 12:24:33;;;;;;;;;;;;;;;11.45;65.97;100150.66;5013287;28;20323;-66
2022/05/02 12:27:18;;;;;;;;;;;;;;;11.45;65.50;100148.94;5013079;28;19976;-65
2022/05/02 12:30:02;;;;;;;;;;;;;;;11.47;65.99;100136.00;5013138;28;19976;-65
2022/05/02 12:32:49;;;;;;;;;;;;;;;11.46;65.50;100131.66;5013822;28;19983;-65
2022/05/02 12:35:36;;;;;;;;;;;;;;;11.48;65.86;100137.75;5014657;28;19975;-65
2022/05/02 12:38:29;;;;;;;;;;;;;;;11.47;65.48;100134.25;5016890;28;19928;-66
2022/05/02 12:41:25;;;;;;;;;;;;;;;11.49;65.53;100136.91;5017241;28;19929;-66
2022/05/02 12:44:19;;;;;;;;;;;;;;;11.50;65.79;100133.44;5016715;28;19928;-66
2022/05/02 12:47:11;;;;;;;;;;;;;;;11.49;65.93;100126.50;5017846;28;19968;-65
2022/05/02 12:50:25;;;;;;;;;;;;;;;11.49;65.91;100127.38;5017540;28;19953;-66
2022/05/02 12:56:26;;;;;;;;;;;;;;;11.52;65.84;100117.03;5010123;28;19932;-65
2022/05/02 13:02:29;;;;;;;;;;;;;;;11.54;65.52;100120.53;5017505;28;19945;-65
2022/05/02 13:05:22;;;;;;;;;;;;;;;11.56;65.61;100117.94;5016130;28;19968;-65
2022/05/02 13:08:17;;;;;;;;;;;;;;;11.56;65.40;100117.94;5016257;28;19991;-65
2022/05/02 13:11:06;;;;;;;;;;;;;;;11.56;65.76;100117.94;5015969;28;19929;-66
2022/05/02 13:13:59;;;;;;;;;;;;;;;11.55;65.44;100114.50;5030611;28;19971;-65
2022/05/02 13:16:49;;;;;;;;;;;;;;;11.56;65.82;100108.44;5017117;28;19928;-66
2022/05/02 13:19:37;;;;;;;;;;;;;;;11.58;65.69;100103.25;5016314;28;19976;-65
2022/05/02 13:22:21;;;;;;;;;;;;;;;11.56;65.59;100102.38;5016057;28;19928;-65
2022/05/02 13:25:06;;;;;;;;;;;;;;;11.56;65.46;100099.78;5016756;28;19984;-65
2022/05/02 13:27:51;;;;;;;;;;;;;;;11.56;65.71;100100.66;5015549;28;19928;-65
2022/05/02 13:30:45;;;;;;;;;;;;;;;11.56;65.81;100090.28;5029579;28;19979;-65
2022/05/02 13:33:39;;;;;;;;;;;;;;;11.57;65.79;100091.13;5015683;28;20023;-65
2022/05/02 13:36:28;;;;;;;;;;;;;;;11.59;65.80;100081.66;5015762;28;20400;-66
2022/05/02 13:39:18;;;;;;;;;;;;;;;11.59;65.34;100092.03;5030622;28;19929;-66
2022/05/02 13:42:12;;;;;;;;;;;;;;;11.61;65.39;100085.13;5016950;28;19975;-66
2022/05/02 13:44:57;;;;;;;;;;;;;;;11.61;65.72;100076.47;5016417;28;19932;-65
2022/05/02 13:47:56;;;;;;;;;;;;;;;11.60;65.63;100073.00;5029117;28;20340;-65
2022/05/02 13:50:57;;;;;;;;;;;;;;;11.63;65.80;100074.75;5028947;28;20344;-65
2022/05/02 13:53:51;;;;;;;;;;;;;;;11.62;65.62;100063.50;5029358;28;19944;-66
2022/05/02 13:57:01;;;;;;;;;;;;;;;11.63;65.64;100066.97;5029245;28;19933;-65
2022/05/02 14:03:20;;;;;;;;;;;;;;;11.67;65.29;100060.97;5016433;28;19968;-66
2022/05/02 14:06:12;;;;;;;;;;;;;;;11.66;65.69;100061.81;5016164;28;19988;-66
2022/05/02 14:08:57;;;;;;;;;;;;;;;11.66;65.68;100056.63;5015673;28;19979;-67
2022/05/02 14:11:49;;;;;;;;;;;;;;;11.66;65.31;100051.44;5029271;28;19928;-66
2022/05/02 14:14:54;;;;;;;;;;;;;;;11.66;65.52;100057.53;5015020;28;19971;-67
2022/05/02 14:17:52;;;;;;;;;;;;;;;11.67;65.56;100053.19;5015676;28;20439;-67
2022/05/02 14:20:47;;;;;;;;;;;;;;;11.69;65.34;100051.47;5014926;28;19980;-66
2022/05/02 14:23:49;;;;;;;;;;;;;;;11.69;65.55;100054.94;5016001;28;19928;-66
2022/05/02 14:26:38;;;;;;;;;;;;;;;11.69;65.73;100059.25;5028789;28;19928;-66
2022/05/02 14:29:31;;;;;;;;;;;;;;;11.69;65.15;100052.34;5014466;28;19995;-66
2022/05/02 14:32:15;;;;;;;;;;;;;;;11.69;65.21;100046.28;5028975;28;19979;-66
2022/05/02 14:34:59;;;;;;;;;;;;;;;11.68;65.11;100050.59;5028596;28;20337;-66
2022/05/02 14:37:47;;;;;;;;;;;;;;;11.69;65.49;100035.91;5015647;28;20392;-66
2022/05/02 14:40:39;;;;;;;;;;;;;;;11.71;65.67;100049.78;5028825;28;19928;-66
2022/05/02 14:43:23;;;;;;;;;;;;;;;11.72;65.41;100046.31;5014407;28;20308;-67
2022/05/02 14:46:11;;;;;;;;;;;;;;;11.73;65.50;100040.28;5014286;28;19945;-66
2022/05/02 14:48:56;;;;;;;;;;;;;;;11.74;65.28;100042.03;5028427;28;19972;-67
2022/05/02 14:51:45;;;;;;;;;;;;;;;11.73;65.13;100040.28;5015200;28;19928;-66
2022/05/02 14:54:37;;;;;;;;;;;;;;;11.75;65.51;100029.91;5014469;28;19972;-67
2022/05/02 14:57:33;;;;;;;;;;;;;;;11.75;65.30;100035.09;5027987;28;20329;-66
2022/05/02 15:00:26;;;;;;;;;;;;;;;11.76;65.40;100037.69;5014413;28;19927;-66
2022/05/02 15:03:13;;;;;;;;;;;;;;;11.76;65.20;100032.50;5013941;28;20011;-66
2022/05/02 15:06:09;;;;;;;;;;;;;;;11.78;65.06;100030.78;5013835;28;19929;-66
2022/05/02 15:09:05;;;;;;;;;;;;;;;11.78;65.13;100023.00;5013713;28;19988;-66
2022/05/02 15:12:12;;;;;;;;;;;;;;;11.79;65.32;100027.34;5015223;28;19976;-66
2022/05/02 15:15:13;;;;;;;;;;;;;;;11.81;65.08;100024.78;5014061;28;20006;-65
2022/05/02 15:18:17;;;;;;;;;;;;;;;11.81;65.24;100019.59;5028354;28;19928;-66
2022/05/02 15:21:11;;;;;;;;;;;;;;;11.81;65.09;100024.78;5014494;28;20404;-65
2022/05/02 15:23:55;;;;;;;;;;;;;;;11.80;65.21;100018.72;5014095;28;20090;-65
2022/05/02 15:26:50;;;;;;;;;;;;;;;11.81;65.35;100019.59;5013935;28;19968;-66